createdAt,value
2017-10-22T00:01:45.585Z,82.10
2017-10-22T00:04:13.153Z,82.30
2017-10-22T00:06:40.727Z,82.30
2017-10-22T00:09:08.261Z,82.30
2017-10-22T00:11:36.204Z,82.00
2017-10-22T00:14:03.759Z,82.00
2017-10-22T00:16:31.271Z,82.00
2017-10-22T00:18:58.828Z,82.10
2017-10-22T00:21:26.403Z,81.90
2017-10-22T00:23:53.952Z,82.20
2017-10-22T00:26:21.486Z,81.50
2017-10-22T00:28:49.061Z,81.60
2017-10-22T00:31:16.611Z,81.70
2017-10-22T00:33:44.549Z,80.80
2017-10-22T00:36:12.102Z,80.80
2017-10-22T00:38:39.673Z,80.50
2017-10-22T00:41:07.233Z,80.30
2017-10-22T00:43:34.849Z,79.90
2017-10-22T00:46:02.393Z,79.80
2017-10-22T00:48:29.946Z,79.60
2017-10-22T00:50:57.508Z,79.20
2017-10-22T00:53:25.432Z,78.90
2017-10-22T00:55:52.993Z,78.90
2017-10-22T00:58:20.569Z,79.00
2017-10-22T01:00:48.101Z,79.10
2017-10-22T01:03:15.670Z,79.00
2017-10-22T01:05:43.606Z,79.10
2017-10-22T01:08:11.224Z,79.10
2017-10-22T01:10:38.798Z,79.20
2017-10-22T01:13:06.741Z,79.50
2017-10-22T01:15:34.289Z,79.50
2017-10-22T01:18:01.852Z,79.30
2017-10-22T01:20:29.393Z,79.20
2017-10-22T01:22:56.964Z,79.50
2017-10-22T01:25:24.509Z,79.20
2017-10-22T01:27:52.084Z,79.30
2017-10-22T01:30:19.628Z,79.20
2017-10-22T01:32:47.175Z,79.10
2017-10-22T01:35:14.725Z,79.50
2017-10-22T01:37:42.334Z,79.50
2017-10-22T01:40:09.893Z,79.30
2017-10-22T01:42:37.416Z,79.50
2017-10-22T01:45:04.958Z,79.60
2017-10-22T01:47:32.488Z,79.80
2017-10-22T01:50:00.455Z,80.00
2017-10-22T01:52:28.398Z,79.80
2017-10-22T01:54:55.933Z,79.80
2017-10-22T01:57:23.493Z,79.60
2017-10-22T01:59:51.033Z,79.60
2017-10-22T02:02:18.666Z,79.30
2017-10-22T02:04:46.250Z,79.20
2017-10-22T02:07:13.824Z,79.20
2017-10-22T02:09:41.351Z,79.00
2017-10-22T02:12:08.897Z,79.00
2017-10-22T02:14:36.884Z,78.60
2017-10-22T02:17:04.820Z,78.50
2017-10-22T02:19:32.374Z,78.50
2017-10-22T02:21:59.917Z,78.80
2017-10-22T02:24:27.896Z,78.50
2017-10-22T02:26:55.516Z,78.50
2017-10-22T02:29:23.033Z,78.50
2017-10-22T02:31:50.601Z,78.40
2017-10-22T02:34:18.551Z,78.60
2017-10-22T02:36:46.154Z,78.60
2017-10-22T02:39:13.692Z,78.60
2017-10-22T02:41:41.281Z,79.00
2017-10-22T02:44:08.841Z,78.70
2017-10-22T02:46:36.406Z,79.30
2017-10-22T02:49:03.961Z,79.50
2017-10-22T02:51:31.487Z,79.70
2017-10-22T02:53:59.476Z,80.20
2017-10-22T02:56:27.420Z,80.30
2017-10-22T02:58:54.991Z,80.30
2017-10-22T03:01:22.544Z,80.50
2017-10-22T03:03:50.101Z,80.20
2017-10-22T03:06:17.664Z,80.30
2017-10-22T03:08:45.228Z,80.40
2017-10-22T03:11:12.861Z,80.50
2017-10-22T03:13:40.436Z,80.40
2017-10-22T03:16:07.993Z,80.40
2017-10-22T03:18:35.620Z,80.20
2017-10-22T03:21:03.577Z,80.10
2017-10-22T03:23:31.167Z,80.10
2017-10-22T03:25:59.101Z,79.40
2017-10-22T03:28:26.650Z,79.30
2017-10-22T03:30:54.178Z,79.10
2017-10-22T03:33:21.740Z,79.40
2017-10-22T03:35:49.302Z,79.10
2017-10-22T03:38:16.829Z,78.70
2017-10-22T03:40:44.376Z,78.00
2017-10-22T03:43:12.313Z,77.80
2017-10-22T03:45:39.909Z,77.80
2017-10-22T03:48:07.466Z,77.90
2017-10-22T03:50:35.003Z,77.60
2017-10-22T03:53:02.570Z,77.20
2017-10-22T03:55:30.108Z,76.90
2017-10-22T03:57:58.125Z,77.40
2017-10-22T04:00:25.670Z,77.40
2017-10-22T04:02:59.431Z,77.30
2017-10-22T04:05:26.979Z,77.30
2017-10-22T04:07:54.516Z,77.10
2017-10-22T04:10:22.502Z,77.40
2017-10-22T04:12:50.029Z,77.50
2017-10-22T04:15:17.586Z,79.20
2017-10-22T04:17:45.124Z,81.20
2017-10-22T04:20:13.082Z,82.90
2017-10-22T04:22:40.612Z,82.90
2017-10-22T04:25:08.147Z,83.20
2017-10-22T04:27:36.102Z,85.40
2017-10-22T04:30:03.644Z,85.40
2017-10-22T04:32:31.191Z,86.60
2017-10-22T04:34:58.724Z,87.60
2017-10-22T04:37:26.690Z,88.80
2017-10-22T04:39:54.236Z,88.80
2017-10-22T04:42:21.780Z,90.30
2017-10-22T04:44:49.409Z,91.30
2017-10-22T04:47:16.938Z,92.00
2017-10-22T04:49:44.481Z,93.10
2017-10-22T04:52:12.397Z,94.70
2017-10-22T04:54:39.945Z,94.70
2017-10-22T04:57:07.473Z,94.90
2017-10-22T04:59:35.030Z,95.50
2017-10-22T05:02:02.565Z,95.80
2017-10-22T05:04:30.100Z,96.30
2017-10-22T05:06:57.664Z,96.60
2017-10-22T05:09:25.214Z,96.60
2017-10-22T05:11:52.751Z,97.10
2017-10-22T05:14:20.273Z,97.30
2017-10-22T05:16:47.819Z,97.70
2017-10-22T05:19:15.361Z,97.70
2017-10-22T05:21:42.937Z,98.00
2017-10-22T05:24:10.467Z,98.30
2017-10-22T05:26:38.007Z,98.60
2017-10-22T05:29:05.559Z,98.60
2017-10-22T05:31:33.090Z,98.50
2017-10-22T05:34:00.643Z,98.60
2017-10-22T05:36:28.172Z,98.60
2017-10-22T05:38:55.717Z,98.50
2017-10-22T05:41:23.673Z,98.80
2017-10-22T05:43:51.235Z,98.80
2017-10-22T05:46:18.790Z,98.80
2017-10-22T05:48:46.342Z,99.10
2017-10-22T05:51:13.887Z,99.00
2017-10-22T05:53:41.813Z,98.90
2017-10-22T05:56:09.356Z,98.90
2017-10-22T05:58:36.881Z,99.00
2017-10-22T06:01:04.430Z,98.70
2017-10-22T06:03:31.957Z,98.80
2017-10-22T06:05:59.876Z,99.00
2017-10-22T06:08:27.443Z,99.00
2017-10-22T06:10:54.960Z,98.90
2017-10-22T06:13:22.504Z,98.80
2017-10-22T06:15:50.023Z,98.80
2017-10-22T06:18:17.611Z,98.80
2017-10-22T06:20:45.137Z,98.80
2017-10-22T06:23:12.668Z,98.90
2017-10-22T06:25:40.212Z,98.60
2017-10-22T06:28:07.741Z,98.90
2017-10-22T06:30:35.302Z,98.90
2017-10-22T06:33:02.851Z,98.90
2017-10-22T06:35:30.393Z,98.70
2017-10-22T06:37:58.315Z,98.80
2017-10-22T06:40:25.876Z,98.80
2017-10-22T06:42:53.408Z,98.70
2017-10-22T06:45:21.339Z,98.80
2017-10-22T06:47:48.890Z,98.80
2017-10-22T06:50:16.422Z,98.40
2017-10-22T06:52:43.966Z,98.60
2017-10-22T06:55:11.503Z,98.50
2017-10-22T06:57:39.059Z,98.70
2017-10-22T07:00:06.618Z,98.50
2017-10-22T07:02:34.193Z,98.50
2017-10-22T07:05:01.737Z,98.40
2017-10-22T07:07:29.677Z,98.40
2017-10-22T07:09:57.234Z,98.40
2017-10-22T07:12:24.764Z,98.40
2017-10-22T07:14:52.316Z,98.30
2017-10-22T07:17:19.841Z,98.20
2017-10-22T07:19:47.428Z,98.20
2017-10-22T07:22:14.967Z,98.20
2017-10-22T07:24:43.756Z,97.90
2017-10-22T07:27:11.300Z,97.90
2017-10-22T07:29:38.826Z,98.00
2017-10-22T07:32:06.395Z,97.70
2017-10-22T07:34:34.318Z,98.10
2017-10-22T07:37:01.866Z,98.10
2017-10-22T07:39:29.393Z,97.40
2017-10-22T07:41:56.930Z,97.60
2017-10-22T07:44:24.475Z,98.00
2017-10-22T07:46:52.012Z,98.10
2017-10-22T07:49:19.539Z,98.10
2017-10-22T07:51:47.089Z,98.20
2017-10-22T07:54:14.623Z,98.00
2017-10-22T07:56:42.177Z,97.80
2017-10-22T07:59:09.711Z,97.60
2017-10-22T08:01:37.264Z,97.60
2017-10-22T08:04:04.824Z,97.30
2017-10-22T08:06:32.783Z,97.40
2017-10-22T08:09:00.320Z,97.40
2017-10-22T08:11:27.942Z,97.40
2017-10-22T08:13:55.865Z,97.10
2017-10-22T08:16:23.415Z,97.10
2017-10-22T08:18:51.001Z,97.20
2017-10-22T08:21:18.520Z,97.10
2017-10-22T08:23:46.067Z,97.00
2017-10-22T08:26:13.601Z,97.30
2017-10-22T08:28:41.140Z,97.20
2017-10-22T08:31:08.668Z,97.00
2017-10-22T08:33:36.223Z,97.40
2017-10-22T08:36:03.750Z,97.30
2017-10-22T08:38:31.305Z,97.30
2017-10-22T08:40:58.855Z,97.10
2017-10-22T08:43:26.418Z,97.00
2017-10-22T08:45:53.942Z,97.00
2017-10-22T08:48:21.476Z,97.20
2017-10-22T08:50:49.010Z,97.10
2017-10-22T08:53:16.951Z,97.20
2017-10-22T08:55:44.492Z,97.20
2017-10-22T08:58:12.061Z,97.00
2017-10-22T09:00:39.595Z,96.60
2017-10-22T09:03:07.526Z,97.40
2017-10-22T09:05:35.068Z,97.40
2017-10-22T09:08:02.603Z,98.00
2017-10-22T09:10:30.150Z,98.10
2017-10-22T09:12:57.687Z,98.10
2017-10-22T09:15:25.230Z,97.90
2017-10-22T09:17:53.156Z,98.10
2017-10-22T09:20:20.706Z,98.10
2017-10-22T09:22:48.242Z,97.90
2017-10-22T09:25:15.786Z,98.00
2017-10-22T09:27:43.322Z,98.00
2017-10-22T09:30:10.951Z,98.10
2017-10-22T09:32:38.491Z,98.30
2017-10-22T09:35:06.084Z,98.30
2017-10-22T09:37:33.776Z,98.30
2017-10-22T09:40:01.424Z,98.00
2017-10-22T09:42:29.076Z,98.10
2017-10-22T09:44:56.701Z,97.80
2017-10-22T09:47:24.644Z,97.20
2017-10-22T09:49:52.660Z,97.40
2017-10-22T09:52:20.634Z,97.50
2017-10-22T09:54:48.218Z,97.50
2017-10-22T09:57:15.757Z,97.30
2017-10-22T09:59:43.288Z,97.20
2017-10-22T10:02:10.841Z,97.10
2017-10-22T10:04:38.366Z,97.70
2017-10-22T10:07:05.927Z,97.90
2017-10-22T10:09:33.456Z,97.40
2017-10-22T10:12:01.423Z,97.30
2017-10-22T10:14:28.967Z,97.30
2017-10-22T10:16:56.514Z,97.60
2017-10-22T10:19:24.044Z,97.40
2017-10-22T10:21:51.608Z,97.70
2017-10-22T10:24:19.548Z,98.20
2017-10-22T10:26:47.104Z,98.10
2017-10-22T10:29:14.630Z,98.30
2017-10-22T10:31:42.573Z,98.30
2017-10-22T10:34:10.126Z,98.40
2017-10-22T10:36:37.702Z,98.60
2017-10-22T10:39:05.224Z,98.30
2017-10-22T10:41:32.776Z,98.60
2017-10-22T10:44:00.329Z,98.60
2017-10-22T10:46:27.869Z,98.70
2017-10-22T10:48:55.428Z,98.70
2017-10-22T10:51:23.011Z,99.00
2017-10-22T10:53:50.563Z,98.90
2017-10-22T10:56:18.505Z,98.80
2017-10-22T10:58:46.125Z,98.80
2017-10-22T11:01:14.061Z,99.00
2017-10-22T11:03:41.612Z,99.00
2017-10-22T11:06:09.145Z,99.00
2017-10-22T11:08:36.695Z,98.90
2017-10-22T11:11:04.239Z,99.00
2017-10-22T11:13:31.771Z,99.30
2017-10-22T11:15:59.296Z,99.20
2017-10-22T11:18:26.851Z,99.20
2017-10-22T11:20:54.383Z,99.30
2017-10-22T11:23:21.926Z,99.50
2017-10-22T11:25:49.875Z,99.50
2017-10-22T11:28:17.432Z,99.50
2017-10-22T11:30:44.988Z,99.50
2017-10-22T11:33:12.525Z,99.60
2017-10-22T11:35:40.068Z,99.60
2017-10-22T11:38:07.602Z,99.50
2017-10-22T11:40:35.155Z,99.70
2017-10-22T11:43:03.089Z,99.90
2017-10-22T11:45:30.656Z,99.80
2017-10-22T11:47:58.199Z,99.90
2017-10-22T11:50:25.763Z,99.90
2017-10-22T11:52:53.310Z,99.90
2017-10-22T11:55:21.275Z,99.90
2017-10-22T11:57:48.821Z,99.90
2017-10-22T12:00:16.438Z,99.90
2017-10-22T12:02:44.765Z,99.90
2017-10-22T12:05:12.406Z,99.90
2017-10-22T12:07:39.957Z,99.90
2017-10-22T12:10:07.508Z,99.90
2017-10-22T12:12:35.047Z,99.90
2017-10-22T12:15:02.630Z,99.90
2017-10-22T12:17:30.292Z,99.80
2017-10-22T12:19:57.859Z,99.90
2017-10-22T12:22:25.396Z,99.90
2017-10-22T12:24:53.343Z,99.90
2017-10-22T12:27:20.885Z,99.90
2017-10-22T12:29:48.441Z,99.90
2017-10-22T12:32:15.992Z,99.90
2017-10-22T12:34:43.560Z,99.70
2017-10-22T12:37:11.609Z,99.50
2017-10-22T12:39:39.154Z,99.50
2017-10-22T12:42:06.710Z,99.60
2017-10-22T12:44:34.271Z,99.40
2017-10-22T12:47:01.839Z,99.40
2017-10-22T12:49:29.424Z,99.20
2017-10-22T12:51:57.004Z,99.40
2017-10-22T12:54:24.541Z,99.60
2017-10-22T12:56:52.091Z,99.50
2017-10-22T12:59:19.635Z,99.20
2017-10-22T13:01:47.200Z,98.90
2017-10-22T13:04:14.753Z,98.90
2017-10-22T13:06:42.696Z,98.70
2017-10-22T13:09:10.314Z,98.70
2017-10-22T13:11:38.073Z,99.00
2017-10-22T13:14:06.018Z,98.70
2017-10-22T13:16:33.556Z,98.70
2017-10-22T13:19:01.181Z,97.90
2017-10-22T13:21:28.789Z,98.30
2017-10-22T13:23:56.330Z,98.70
2017-10-22T13:26:23.852Z,98.20
2017-10-22T13:28:51.430Z,98.10
2017-10-22T13:31:19.044Z,98.20
2017-10-22T13:33:46.585Z,98.40
2017-10-22T13:36:14.149Z,98.20
2017-10-22T13:38:41.725Z,98.20
2017-10-22T13:41:09.278Z,97.80
2017-10-22T13:43:36.842Z,97.40
2017-10-22T13:46:04.380Z,97.70
2017-10-22T13:48:32.342Z,97.70
2017-10-22T13:50:59.891Z,97.70
2017-10-22T13:53:27.456Z,97.30
2017-10-22T13:55:54.994Z,97.40
2017-10-22T13:58:22.945Z,96.70
2017-10-22T14:00:50.494Z,96.70
2017-10-22T14:03:18.061Z,96.30
2017-10-22T14:05:45.607Z,96.40
2017-10-22T14:08:13.152Z,96.50
2017-10-22T14:10:40.733Z,96.20
2017-10-22T14:13:08.660Z,96.10
2017-10-22T14:15:36.218Z,96.10
2017-10-22T14:18:03.771Z,95.10
2017-10-22T14:20:31.364Z,95.90
2017-10-22T14:22:58.928Z,96.00
2017-10-22T14:25:26.480Z,95.70
2017-10-22T14:27:54.000Z,95.80
2017-10-22T14:30:21.611Z,96.00
2017-10-22T14:32:49.536Z,95.40
2017-10-22T14:35:17.087Z,95.40
2017-10-22T14:37:44.634Z,96.70
2017-10-22T14:40:12.609Z,96.80
2017-10-22T14:42:40.540Z,97.10
2017-10-22T14:45:08.103Z,97.10
2017-10-22T14:47:35.643Z,97.30
2017-10-22T14:50:03.620Z,96.00
2017-10-22T14:52:31.538Z,95.70
2017-10-22T14:54:59.082Z,95.70
2017-10-22T14:57:26.764Z,96.00
2017-10-22T14:59:54.320Z,95.80
2017-10-22T15:02:22.274Z,95.90
2017-10-22T15:04:49.823Z,95.90
2017-10-22T15:07:17.390Z,95.30
2017-10-22T15:09:44.920Z,95.00
2017-10-22T15:12:12.898Z,95.50
2017-10-22T15:14:40.834Z,95.30
2017-10-22T15:17:08.377Z,95.30
2017-10-22T15:19:35.938Z,94.30
2017-10-22T15:22:03.529Z,94.80
2017-10-22T15:24:31.074Z,96.00
2017-10-22T15:26:58.644Z,95.60
2017-10-22T15:29:26.180Z,95.20
2017-10-22T15:31:53.746Z,94.50
2017-10-22T15:34:21.283Z,93.70
2017-10-22T15:36:48.832Z,93.40
2017-10-22T15:39:16.377Z,92.30
2017-10-22T15:41:43.948Z,92.90
2017-10-22T15:44:11.477Z,92.80
2017-10-22T15:46:39.032Z,92.90
2017-10-22T15:49:06.589Z,93.30
2017-10-22T15:51:34.116Z,92.70
2017-10-22T15:54:01.661Z,93.50
2017-10-22T15:56:30.001Z,94.00
2017-10-22T15:58:58.025Z,93.60
2017-10-22T16:01:25.574Z,93.60
2017-10-22T16:03:53.151Z,94.20
2017-10-22T16:06:20.682Z,94.10
2017-10-22T16:08:48.234Z,94.80
2017-10-22T16:11:15.789Z,94.60
2017-10-22T16:13:43.336Z,94.10
2017-10-22T16:16:10.892Z,94.80
2017-10-22T16:18:38.717Z,94.50
2017-10-22T16:21:06.266Z,94.90
2017-10-22T16:23:33.829Z,94.40
2017-10-22T16:26:01.394Z,94.70
2017-10-22T16:28:28.952Z,94.90
2017-10-22T16:30:56.486Z,94.70
2017-10-22T16:33:24.086Z,94.50
2017-10-22T16:35:52.041Z,94.60
2017-10-22T16:38:19.585Z,94.60
2017-10-22T16:40:47.152Z,94.00
2017-10-22T16:43:14.705Z,94.20
2017-10-22T16:45:42.695Z,94.20
2017-10-22T16:48:10.241Z,93.80
2017-10-22T16:50:37.824Z,94.00
2017-10-22T16:53:05.800Z,94.00
2017-10-22T16:55:33.350Z,94.00
2017-10-22T16:58:00.876Z,93.80
2017-10-22T17:00:28.555Z,93.30
2017-10-22T17:02:56.095Z,93.80
2017-10-22T17:05:24.064Z,92.80
2017-10-22T17:07:51.600Z,92.80
2017-10-22T17:10:19.492Z,93.50
2017-10-22T17:12:47.146Z,93.40
2017-10-22T17:15:14.698Z,93.30
2017-10-22T17:17:42.255Z,93.60
2017-10-22T17:20:09.855Z,93.90
2017-10-22T17:22:37.407Z,93.80
2017-10-22T17:25:05.006Z,94.00
2017-10-22T17:27:32.536Z,94.20
2017-10-22T17:30:00.255Z,93.80
2017-10-22T17:32:27.802Z,93.30
2017-10-22T17:34:55.333Z,93.70
2017-10-22T17:37:22.890Z,94.20
2017-10-22T17:39:50.430Z,94.20
2017-10-22T17:42:17.977Z,94.80
2017-10-22T17:44:45.508Z,94.40
2017-10-22T17:47:13.053Z,94.00
2017-10-22T17:49:40.605Z,93.80
2017-10-22T17:52:08.204Z,94.10
2017-10-22T17:54:35.741Z,93.90
2017-10-22T17:57:03.293Z,94.10
2017-10-22T17:59:31.209Z,95.00
2017-10-22T18:01:58.754Z,95.00
2017-10-22T18:04:26.285Z,95.40
2017-10-22T18:06:53.820Z,95.70
2017-10-22T18:09:21.400Z,95.40
2017-10-22T18:11:48.978Z,95.60
2017-10-22T18:14:16.534Z,95.10
2017-10-22T18:16:44.089Z,95.20
2017-10-22T18:19:11.841Z,95.40
2017-10-22T18:21:39.762Z,95.50
2017-10-22T18:24:07.310Z,95.50
2017-10-22T18:26:35.244Z,94.60
2017-10-22T18:29:02.851Z,94.60
2017-10-22T18:31:30.376Z,95.30
2017-10-22T18:33:58.377Z,94.90
2017-10-22T18:36:26.359Z,94.40
2017-10-22T18:38:53.934Z,94.40
2017-10-22T18:41:21.507Z,94.80
2017-10-22T18:43:50.091Z,94.30
2017-10-22T18:46:17.651Z,95.10
2017-10-22T18:48:45.201Z,95.10
2017-10-22T18:51:12.741Z,94.60
2017-10-22T18:53:40.726Z,95.10
2017-10-22T18:56:08.653Z,95.10
2017-10-22T18:58:36.217Z,95.10
2017-10-22T19:01:03.768Z,95.60
2017-10-22T19:03:31.408Z,95.90
2017-10-22T19:05:58.933Z,96.10
2017-10-22T19:08:26.518Z,96.10
2017-10-22T19:10:54.082Z,96.20
2017-10-22T19:13:21.645Z,96.00
2017-10-22T19:15:49.206Z,96.10
2017-10-22T19:18:16.771Z,95.90
2017-10-22T19:20:44.327Z,95.70
2017-10-22T19:23:11.890Z,95.80
2017-10-22T19:25:39.439Z,95.50
2017-10-22T19:28:07.072Z,95.80
2017-10-22T19:30:34.621Z,95.70
2017-10-22T19:33:02.164Z,95.40
2017-10-22T19:35:29.713Z,95.60
2017-10-22T19:37:57.397Z,95.20
2017-10-22T19:40:24.942Z,94.50
2017-10-22T19:42:52.477Z,94.80
2017-10-22T19:45:20.416Z,95.30
2017-10-22T19:47:47.958Z,95.30
2017-10-22T19:50:15.506Z,95.10
2017-10-22T19:52:43.451Z,94.80
2017-10-22T19:55:11.029Z,94.90
2017-10-22T19:57:38.574Z,94.70
2017-10-22T20:00:06.149Z,94.50
2017-10-22T20:02:33.693Z,94.70
2017-10-22T20:05:01.251Z,94.30
2017-10-22T20:07:28.830Z,95.30
2017-10-22T20:09:57.047Z,94.50
2017-10-22T20:12:24.598Z,94.90
2017-10-22T20:14:52.256Z,95.20
2017-10-22T20:17:19.796Z,94.70
2017-10-22T20:19:47.339Z,94.80
2017-10-22T20:22:14.889Z,94.80
2017-10-22T20:24:42.410Z,94.20
2017-10-22T20:27:09.982Z,94.40
2017-10-22T20:29:37.583Z,94.20
2017-10-22T20:32:05.154Z,93.80
2017-10-22T20:34:33.065Z,93.40
2017-10-22T20:37:00.606Z,93.40
2017-10-22T20:39:28.171Z,93.50
2017-10-22T20:41:56.111Z,92.80
2017-10-22T20:44:23.657Z,92.80
2017-10-22T20:46:51.267Z,92.70
2017-10-22T20:49:18.813Z,92.50
2017-10-22T20:51:46.361Z,93.10
2017-10-22T20:54:14.015Z,92.50
2017-10-22T20:56:41.549Z,92.90
2017-10-22T20:59:09.085Z,92.40
2017-10-22T21:01:36.644Z,92.40
2017-10-22T21:04:04.205Z,92.70
2017-10-22T21:06:31.746Z,92.10
2017-10-22T21:08:59.323Z,91.70
2017-10-22T21:11:26.869Z,91.60
2017-10-22T21:13:54.428Z,91.90
2017-10-22T21:16:21.976Z,92.10
2017-10-22T21:18:49.528Z,91.60
2017-10-22T21:21:17.444Z,91.60
2017-10-22T21:23:45.036Z,91.60
2017-10-22T21:26:12.611Z,92.00
2017-10-22T21:28:40.135Z,91.60
2017-10-22T21:31:08.082Z,91.90
2017-10-22T21:33:35.635Z,91.90
2017-10-22T21:36:03.164Z,91.80
2017-10-22T21:38:30.696Z,92.00
2017-10-22T21:40:58.660Z,90.90
2017-10-22T21:43:26.199Z,90.90
2017-10-22T21:45:53.726Z,90.70
2017-10-22T21:48:21.285Z,91.40
2017-10-22T21:50:48.801Z,92.10
2017-10-22T21:53:16.345Z,92.30
2017-10-22T21:55:43.886Z,91.40
2017-10-22T21:58:11.422Z,92.40
2017-10-22T22:00:38.968Z,91.50
2017-10-22T22:03:06.954Z,91.10
2017-10-22T22:05:34.877Z,91.40
2017-10-22T22:08:02.398Z,91.40
2017-10-22T22:10:29.956Z,91.40
2017-10-22T22:12:57.486Z,92.10
2017-10-22T22:15:25.034Z,91.90
2017-10-22T22:17:52.572Z,92.60
2017-10-22T22:20:20.123Z,93.00
2017-10-22T22:22:47.658Z,93.50
2017-10-22T22:25:15.188Z,93.80
2017-10-22T22:27:42.724Z,93.60
2017-10-22T22:30:10.261Z,93.50
2017-10-22T22:32:37.884Z,93.50
2017-10-22T22:35:05.404Z,93.30
2017-10-22T22:37:32.969Z,93.60
2017-10-22T22:40:00.907Z,93.60
2017-10-22T22:42:28.458Z,93.60
2017-10-22T22:44:55.995Z,93.70
2017-10-22T22:47:23.919Z,93.40
2017-10-22T22:49:51.472Z,93.40
2017-10-22T22:52:19.013Z,93.10
2017-10-22T22:54:46.573Z,93.10
2017-10-22T22:57:14.195Z,93.50
2017-10-22T22:59:41.723Z,93.60
2017-10-22T23:02:09.277Z,93.60
2017-10-22T23:04:36.799Z,93.70
2017-10-22T23:07:04.398Z,93.90
2017-10-22T23:09:31.958Z,94.10
2017-10-22T23:11:59.505Z,94.30
2017-10-22T23:14:27.043Z,94.30
2017-10-22T23:16:55.015Z,94.50
2017-10-22T23:19:22.549Z,94.50
2017-10-22T23:21:50.093Z,94.70
2017-10-22T23:24:17.644Z,94.90
2017-10-22T23:26:45.171Z,95.30
2017-10-22T23:29:12.732Z,95.40
2017-10-22T23:31:40.263Z,94.80
2017-10-22T23:34:07.821Z,95.30
2017-10-22T23:36:35.497Z,95.10
2017-10-22T23:39:03.045Z,95.50
2017-10-22T23:41:30.565Z,95.80
2017-10-22T23:43:58.121Z,95.90
2017-10-22T23:46:26.061Z,96.00
2017-10-22T23:48:53.583Z,96.00
2017-10-22T23:51:21.144Z,95.80
2017-10-22T23:53:49.064Z,96.30
2017-10-22T23:56:16.628Z,96.30
2017-10-22T23:58:44.170Z,96.10
